createdAt,value
2022-10-06T00:00:49.262Z,13.99
2022-10-06T00:03:16.813Z,13.98
2022-10-06T00:05:44.112Z,14.10
2022-10-06T00:08:11.225Z,14.23
2022-10-06T00:10:37.673Z,14.06
2022-10-06T00:13:04.119Z,14.10
2022-10-06T00:15:31.945Z,14.01
2022-10-06T00:17:59.033Z,14.02
2022-10-06T00:20:26.969Z,14.20
2022-10-06T00:22:53.424Z,14.00
2022-10-06T00:25:22.014Z,13.89
2022-10-06T00:27:51.061Z,13.81
2022-10-06T00:30:23.830Z,13.69
2022-10-06T00:32:58.691Z,13.68
2022-10-06T00:35:26.762Z,13.60
2022-10-06T00:37:53.954Z,13.62
2022-10-06T00:40:21.772Z,13.54
2022-10-06T00:42:49.548Z,13.58
2022-10-06T00:45:16.838Z,13.37
2022-10-06T00:47:43.307Z,13.36
2022-10-06T00:50:12.674Z,13.33
2022-10-06T00:52:39.940Z,13.33
2022-10-06T00:55:09.391Z,13.24
2022-10-06T00:57:40.284Z,13.30
2022-10-06T01:00:08.737Z,13.34
2022-10-06T01:03:04.419Z,13.38
2022-10-06T01:05:35.938Z,13.39
2022-10-06T01:08:02.960Z,13.33
2022-10-06T01:10:29.425Z,13.15
2022-10-06T01:12:57.159Z,13.11
2022-10-06T01:15:25.533Z,13.24
2022-10-06T01:17:57.421Z,13.45
2022-10-06T01:20:24.404Z,13.38
2022-10-06T01:23:05.083Z,13.39
2022-10-06T01:25:35.554Z,13.09
2022-10-06T01:28:04.392Z,13.06
2022-10-06T01:30:41.576Z,12.99
2022-10-06T01:33:08.056Z,12.96
2022-10-06T01:35:34.603Z,12.89
2022-10-06T01:38:01.014Z,12.93
2022-10-06T01:40:29.169Z,12.83
2022-10-06T01:42:56.516Z,12.79
2022-10-06T01:45:22.941Z,12.90
2022-10-06T01:47:49.510Z,13.17
2022-10-06T01:50:16.071Z,13.04
2022-10-06T01:52:42.508Z,13.17
2022-10-06T01:55:09.151Z,13.29
2022-10-06T01:57:42.426Z,13.22
2022-10-06T02:00:09.578Z,13.13
2022-10-06T02:02:36.001Z,13.02
2022-10-06T02:05:04.093Z,13.00
2022-10-06T02:07:30.522Z,13.02
2022-10-06T02:09:57.033Z,13.12
2022-10-06T02:12:24.133Z,13.12
2022-10-06T02:14:50.567Z,13.00
2022-10-06T02:17:16.993Z,12.92
2022-10-06T02:19:43.484Z,12.77
2022-10-06T02:22:09.917Z,13.02
2022-10-06T02:24:36.351Z,12.82
2022-10-06T02:27:02.920Z,12.66
2022-10-06T02:29:29.366Z,12.56
2022-10-06T02:31:55.885Z,12.60
2022-10-06T02:34:22.309Z,12.56
2022-10-06T02:36:48.730Z,12.57
2022-10-06T02:39:15.141Z,12.79
2022-10-06T02:41:41.595Z,12.82
2022-10-06T02:44:09.206Z,12.68
2022-10-06T02:46:35.726Z,12.71
2022-10-06T02:49:02.357Z,12.63
2022-10-06T02:51:31.473Z,12.63
2022-10-06T02:53:57.892Z,12.51
2022-10-06T02:56:25.863Z,12.45
2022-10-06T02:58:53.530Z,12.71
2022-10-06T03:01:25.768Z,12.71
2022-10-06T03:03:53.003Z,12.57
2022-10-06T03:06:22.103Z,12.60
2022-10-06T03:08:57.790Z,12.72
2022-10-06T03:11:27.021Z,12.53
2022-10-06T03:13:53.633Z,12.57
2022-10-06T03:16:22.306Z,12.60
2022-10-06T03:18:50.344Z,12.55
2022-10-06T03:21:18.197Z,12.60
2022-10-06T03:23:48.181Z,12.58
2022-10-06T03:26:16.135Z,12.54
2022-10-06T03:28:42.635Z,12.75
2022-10-06T03:31:09.411Z,12.59
2022-10-06T03:33:36.209Z,12.52
2022-10-06T03:36:08.177Z,12.45
2022-10-06T03:38:35.494Z,12.39
2022-10-06T03:41:07.016Z,12.44
2022-10-06T03:43:34.340Z,12.39
2022-10-06T03:46:01.424Z,12.24
2022-10-06T03:48:29.826Z,12.27
2022-10-06T03:50:58.910Z,12.20
2022-10-06T03:53:28.065Z,12.13
2022-10-06T03:56:12.431Z,12.20
2022-10-06T03:58:41.452Z,12.18
2022-10-06T04:01:16.038Z,12.05
2022-10-06T04:03:43.777Z,12.07
2022-10-06T04:06:13.430Z,12.33
2022-10-06T04:08:41.572Z,12.38
2022-10-06T04:11:09.577Z,12.24
2022-10-06T04:13:36.359Z,12.22
2022-10-06T04:16:17.215Z,12.26
2022-10-06T04:18:45.352Z,12.23
2022-10-06T04:21:12.904Z,12.14
2022-10-06T04:23:39.340Z,12.08
2022-10-06T04:26:10.705Z,12.28
2022-10-06T04:28:41.725Z,12.33
2022-10-06T04:31:13.244Z,12.23
2022-10-06T04:33:39.750Z,12.32
2022-10-06T04:36:08.089Z,12.27
2022-10-06T04:38:36.078Z,12.32
2022-10-06T04:41:05.741Z,12.24
2022-10-06T04:43:32.247Z,12.10
2022-10-06T04:45:59.729Z,12.38
2022-10-06T04:48:27.567Z,12.38
2022-10-06T04:51:02.539Z,12.29
2022-10-06T04:53:29.684Z,12.09
2022-10-06T04:56:20.838Z,12.24
2022-10-06T04:58:49.380Z,12.23
2022-10-06T05:01:24.431Z,12.12
2022-10-06T05:03:53.477Z,12.19
2022-10-06T05:06:22.154Z,12.10
2022-10-06T05:09:00.582Z,12.00
2022-10-06T05:11:27.689Z,12.17
2022-10-06T05:13:56.398Z,12.05
2022-10-06T05:16:24.509Z,12.05
2022-10-06T05:18:51.217Z,12.14
2022-10-06T05:21:20.312Z,12.01
2022-10-06T05:23:47.174Z,11.93
2022-10-06T05:26:16.818Z,12.03
2022-10-06T05:28:44.308Z,12.14
2022-10-06T05:31:21.591Z,12.06
2022-10-06T05:33:48.741Z,12.26
2022-10-06T05:36:17.674Z,12.38
2022-10-06T05:38:44.720Z,12.34
2022-10-06T05:41:14.542Z,12.51
2022-10-06T05:43:41.901Z,12.46
2022-10-06T05:46:17.359Z,12.54
2022-10-06T05:48:47.637Z,12.42
2022-10-06T05:51:14.932Z,12.61
2022-10-06T05:53:42.086Z,12.67
2022-10-06T05:56:10.461Z,12.43
2022-10-06T05:58:38.973Z,12.51
2022-10-06T06:01:17.823Z,12.48
2022-10-06T06:03:49.075Z,12.45
2022-10-06T06:06:32.222Z,12.49
2022-10-06T06:09:03.007Z,12.59
2022-10-06T06:11:31.583Z,12.60
2022-10-06T06:14:03.170Z,12.72
2022-10-06T06:16:33.659Z,12.93
2022-10-06T06:19:01.298Z,12.96
2022-10-06T06:21:29.042Z,13.05
2022-10-06T06:23:55.835Z,13.22
2022-10-06T06:26:27.829Z,13.34
2022-10-06T06:28:56.390Z,13.41
2022-10-06T06:31:26.714Z,13.44
2022-10-06T06:33:58.708Z,13.36
2022-10-06T06:36:35.982Z,13.14
2022-10-06T06:39:08.295Z,13.07
2022-10-06T06:41:37.879Z,13.15
2022-10-06T06:44:06.807Z,12.99
2022-10-06T06:49:04.434Z,13.13
2022-10-06T06:51:33.252Z,13.06
2022-10-06T06:54:02.273Z,13.06
2022-10-06T06:56:35.241Z,13.16
2022-10-06T06:59:03.675Z,13.23
2022-10-06T07:01:30.673Z,13.24
2022-10-06T07:04:00.977Z,13.34
2022-10-06T07:06:29.763Z,13.42
2022-10-06T07:08:58.432Z,13.64
2022-10-06T07:11:24.887Z,13.85
2022-10-06T07:13:54.242Z,13.85
2022-10-06T07:16:41.085Z,13.90
2022-10-06T07:19:27.902Z,14.00
2022-10-06T07:22:26.442Z,14.31
2022-10-06T07:25:06.933Z,14.53
2022-10-06T07:27:34.737Z,14.59
2022-10-06T07:30:01.214Z,14.79
2022-10-06T07:32:30.912Z,14.70
2022-10-06T07:34:58.726Z,14.66
2022-10-06T07:37:25.921Z,14.52
2022-10-06T07:39:52.404Z,14.54
2022-10-06T07:42:19.076Z,14.61
2022-10-06T07:45:09.131Z,14.57
2022-10-06T07:47:39.773Z,14.59
2022-10-06T07:50:07.760Z,14.54
2022-10-06T07:52:37.068Z,14.55
2022-10-06T07:55:03.763Z,14.57
2022-10-06T07:57:34.850Z,14.49
2022-10-06T08:00:05.203Z,14.51
2022-10-06T08:02:34.828Z,14.51
2022-10-06T08:05:02.491Z,14.58
2022-10-06T08:07:28.920Z,14.67
2022-10-06T08:09:55.406Z,14.69
2022-10-06T08:12:33.889Z,14.70
2022-10-06T08:15:06.112Z,14.70
2022-10-06T08:17:35.778Z,14.69
2022-10-06T08:20:02.833Z,14.69
2022-10-06T08:22:30.166Z,14.75
2022-10-06T08:25:05.815Z,14.73
2022-10-06T08:27:34.893Z,14.63
2022-10-06T08:30:01.776Z,14.65
2022-10-06T08:32:28.298Z,14.73
2022-10-06T08:34:54.948Z,14.84
2022-10-06T08:37:23.798Z,14.88
2022-10-06T08:39:51.314Z,14.86
2022-10-06T08:42:46.202Z,14.87
2022-10-06T08:45:15.341Z,14.89
2022-10-06T08:47:52.257Z,14.87
2022-10-06T08:50:21.337Z,14.88
2022-10-06T08:53:15.453Z,15.03
2022-10-06T08:55:50.031Z,15.11
2022-10-06T08:58:34.272Z,15.01
2022-10-06T09:01:14.237Z,15.05
2022-10-06T09:03:41.202Z,14.96
2022-10-06T09:06:29.388Z,14.97
2022-10-06T09:09:03.217Z,15.01
2022-10-06T09:12:05.157Z,15.11
2022-10-06T09:14:43.082Z,15.20
2022-10-06T09:17:15.064Z,15.27
2022-10-06T09:19:55.771Z,15.35
2022-10-06T09:22:23.413Z,15.37
2022-10-06T09:24:56.802Z,15.39
2022-10-06T09:27:26.652Z,15.38
2022-10-06T09:29:53.442Z,15.47
2022-10-06T09:32:24.175Z,15.56
2022-10-06T09:34:55.332Z,15.69
2022-10-06T09:37:22.858Z,15.71
2022-10-06T09:39:51.583Z,15.82
2022-10-06T09:42:19.676Z,15.94
2022-10-06T09:45:07.520Z,16.05
2022-10-06T09:47:45.062Z,16.23
2022-10-06T09:50:26.409Z,16.47
2022-10-06T09:53:03.236Z,16.71
2022-10-06T09:55:44.629Z,16.82
2022-10-06T09:58:29.620Z,16.86
2022-10-06T10:01:00.255Z,16.89
2022-10-06T10:04:20.989Z,17.05
2022-10-06T10:06:47.872Z,17.15
2022-10-06T10:09:21.321Z,17.29
2022-10-06T10:12:26.226Z,17.47
2022-10-06T10:14:59.498Z,17.66
2022-10-06T10:17:42.622Z,17.81
2022-10-06T10:20:50.522Z,17.99
2022-10-06T10:23:27.263Z,17.93
2022-10-06T10:26:08.057Z,17.88
2022-10-06T10:28:44.302Z,17.94
2022-10-06T10:31:21.834Z,17.88
2022-10-06T10:34:05.094Z,17.72
2022-10-06T10:36:45.763Z,17.89
2022-10-06T10:39:28.952Z,17.93
2022-10-06T10:42:01.175Z,18.06
2022-10-06T10:44:43.043Z,18.09
2022-10-06T10:47:23.365Z,18.16
2022-10-06T10:50:00.910Z,18.36
2022-10-06T10:52:32.995Z,18.44
2022-10-06T10:55:27.191Z,18.63
2022-10-06T10:58:02.137Z,18.63
2022-10-06T11:00:31.487Z,18.62
2022-10-06T11:02:59.022Z,18.80
2022-10-06T11:05:51.933Z,18.87
2022-10-06T11:08:23.076Z,18.98
2022-10-06T11:11:08.406Z,19.06
2022-10-06T11:13:40.158Z,19.26
2022-10-06T11:16:37.519Z,19.32
2022-10-06T11:19:35.085Z,19.44
2022-10-06T11:22:21.758Z,19.59
2022-10-06T11:24:53.199Z,19.76
2022-10-06T11:27:25.369Z,19.76
2022-10-06T11:30:12.996Z,19.93
2022-10-06T11:32:49.097Z,20.17
2022-10-06T11:35:22.137Z,19.98
2022-10-06T11:37:55.752Z,19.98
2022-10-06T11:40:31.666Z,19.99
2022-10-06T11:43:08.739Z,20.30
2022-10-06T11:45:51.556Z,20.66
2022-10-06T11:48:20.972Z,20.93
2022-10-06T11:50:51.149Z,20.94
2022-10-06T11:53:32.681Z,21.01
2022-10-06T11:56:17.419Z,21.18
2022-10-06T11:59:09.609Z,21.38
2022-10-06T12:01:43.930Z,21.77
2022-10-06T12:04:10.595Z,21.85
2022-10-06T12:06:45.727Z,22.00
2022-10-06T12:09:38.188Z,21.83
2022-10-06T12:12:19.535Z,21.64
2022-10-06T12:17:55.498Z,22.20
2022-10-06T12:20:34.758Z,22.74
2022-10-06T12:23:10.086Z,22.92
2022-10-06T12:26:23.147Z,23.69
2022-10-06T12:29:08.178Z,24.31
2022-10-06T12:31:43.217Z,23.90
2022-10-06T12:35:07.498Z,24.35
2022-10-06T12:37:40.383Z,24.31
2022-10-06T12:40:25.038Z,24.19
2022-10-06T12:42:51.478Z,23.96
2022-10-06T12:45:18.181Z,23.69
2022-10-06T12:47:45.175Z,23.52
2022-10-06T12:50:25.460Z,24.10
2022-10-06T12:53:11.952Z,24.51
2022-10-06T12:55:46.107Z,24.94
2022-10-06T12:58:32.386Z,24.58
2022-10-06T13:01:09.493Z,24.77
2022-10-06T13:03:37.625Z,24.90
2022-10-06T13:06:07.100Z,24.98
2022-10-06T13:08:35.689Z,24.87
2022-10-06T13:11:26.794Z,24.84
2022-10-06T13:14:06.797Z,24.69
2022-10-06T13:16:40.761Z,24.76
2022-10-06T13:19:24.592Z,24.49
2022-10-06T13:21:51.340Z,24.53
2022-10-06T13:24:21.006Z,24.26
2022-10-06T13:26:48.165Z,24.35
2022-10-06T13:29:25.467Z,24.35
2022-10-06T13:31:54.691Z,24.41
2022-10-06T13:34:25.868Z,24.43
2022-10-06T13:36:52.855Z,24.40
2022-10-06T13:39:21.925Z,24.15
2022-10-06T13:42:08.648Z,24.14
2022-10-06T13:44:39.856Z,24.07
2022-10-06T13:47:19.719Z,23.88
2022-10-06T13:49:53.236Z,23.80
2022-10-06T13:52:33.019Z,23.42
2022-10-06T13:55:01.597Z,23.36
2022-10-06T13:57:42.685Z,23.51
2022-10-06T14:00:25.813Z,23.07
2022-10-06T14:02:57.285Z,22.88
2022-10-06T14:05:31.911Z,23.10
2022-10-06T14:08:03.821Z,23.09
2022-10-06T14:11:03.218Z,22.88
2022-10-06T14:13:53.700Z,22.01
2022-10-06T14:16:23.115Z,21.93
2022-10-06T14:19:04.587Z,21.95
2022-10-06T14:21:42.447Z,22.07
2022-10-06T14:24:20.688Z,21.87
2022-10-06T14:26:55.709Z,21.81
2022-10-06T14:29:22.726Z,21.80
2022-10-06T14:31:49.606Z,21.58
2022-10-06T14:34:18.724Z,21.29
2022-10-06T14:36:47.615Z,21.11
2022-10-06T14:39:15.416Z,21.27
2022-10-06T14:41:42.108Z,21.15
2022-10-06T14:44:11.415Z,21.08
2022-10-06T14:46:39.716Z,20.93
2022-10-06T14:49:07.618Z,20.89
2022-10-06T14:51:37.020Z,20.80
2022-10-06T14:54:05.091Z,20.76
2022-10-06T14:56:33.934Z,20.63
2022-10-06T14:59:04.876Z,20.50
2022-10-06T15:01:36.070Z,20.38
2022-10-06T15:04:06.777Z,20.32
2022-10-06T15:06:52.194Z,20.27
2022-10-06T15:09:18.896Z,20.32
2022-10-06T15:11:45.515Z,20.21
2022-10-06T15:14:12.284Z,20.19
2022-10-06T15:16:42.158Z,20.19
2022-10-06T15:19:10.933Z,20.09
2022-10-06T15:21:41.516Z,19.88
2022-10-06T15:24:11.986Z,19.85
2022-10-06T15:26:57.850Z,19.89
2022-10-06T15:29:24.546Z,19.72
2022-10-06T15:31:55.072Z,19.73
2022-10-06T15:34:29.762Z,19.63
2022-10-06T15:36:57.761Z,19.53
2022-10-06T15:39:27.018Z,19.43
2022-10-06T15:41:54.175Z,19.41
2022-10-06T15:44:21.546Z,19.36
2022-10-06T15:46:51.035Z,19.29
2022-10-06T15:49:22.822Z,19.29
2022-10-06T15:51:54.692Z,19.21
2022-10-06T15:54:25.019Z,19.17
2022-10-06T15:56:53.716Z,19.14
2022-10-06T15:59:23.722Z,19.08
2022-10-06T16:01:59.953Z,19.03
2022-10-06T16:04:33.711Z,18.86
2022-10-06T16:07:00.754Z,18.78
2022-10-06T16:09:30.118Z,18.69
2022-10-06T16:11:58.190Z,18.60
2022-10-06T16:14:26.127Z,18.40
2022-10-06T16:16:53.455Z,18.30
2022-10-06T16:19:20.197Z,18.26
2022-10-06T16:21:48.912Z,18.24
2022-10-06T16:24:17.189Z,18.23
2022-10-06T16:26:44.413Z,18.25
2022-10-06T16:29:10.911Z,18.08
2022-10-06T16:31:37.547Z,18.03
2022-10-06T16:34:04.399Z,17.94
2022-10-06T16:36:30.881Z,17.94
2022-10-06T16:38:57.461Z,17.89
2022-10-06T16:41:24.041Z,17.81
2022-10-06T16:43:52.125Z,17.69
2022-10-06T16:46:24.834Z,17.66
2022-10-06T16:48:55.427Z,17.57
2022-10-06T16:51:48.779Z,17.54
2022-10-06T16:54:17.575Z,17.46
2022-10-06T16:56:46.556Z,17.49
2022-10-06T16:59:15.782Z,17.44
2022-10-06T17:01:43.039Z,17.37
2022-10-06T17:04:15.618Z,17.32
2022-10-06T17:06:47.718Z,17.40
2022-10-06T17:09:22.401Z,17.45
2022-10-06T17:11:52.034Z,17.44
2022-10-06T17:14:19.654Z,17.34
2022-10-06T17:16:47.421Z,17.21
2022-10-06T17:19:16.652Z,17.11
2022-10-06T17:21:49.531Z,17.09
2022-10-06T17:24:18.986Z,17.08
2022-10-06T17:26:48.099Z,17.03
2022-10-06T17:29:18.815Z,17.07
2022-10-06T17:31:46.027Z,17.05
2022-10-06T17:34:20.032Z,17.01
2022-10-06T17:36:48.906Z,17.02
2022-10-06T17:39:18.209Z,16.95
2022-10-06T17:41:46.057Z,16.93
2022-10-06T17:44:16.939Z,16.86
2022-10-06T17:46:45.461Z,16.79
2022-10-06T17:49:14.917Z,16.68
2022-10-06T17:51:45.082Z,16.56
2022-10-06T17:54:13.635Z,16.47
2022-10-06T17:56:40.098Z,16.41
2022-10-06T17:59:08.582Z,16.51
2022-10-06T18:01:35.767Z,16.35
2022-10-06T18:04:05.027Z,16.38
2022-10-06T18:06:34.505Z,16.33
2022-10-06T18:09:02.397Z,16.31
2022-10-06T18:11:38.282Z,16.23
2022-10-06T18:14:12.366Z,16.23
2022-10-06T18:16:40.601Z,16.25
2022-10-06T18:19:20.203Z,16.23
2022-10-06T18:21:47.887Z,16.20
2022-10-06T18:24:17.044Z,16.29
2022-10-06T18:26:48.230Z,16.31
2022-10-06T18:29:20.262Z,16.24
2022-10-06T18:31:49.922Z,16.28
2022-10-06T18:37:04.532Z,16.30
2022-10-06T18:39:32.058Z,16.22
2022-10-06T18:42:05.251Z,16.15
2022-10-06T18:44:50.130Z,16.02
2022-10-06T18:47:34.898Z,15.95
2022-10-06T18:50:01.478Z,15.84
2022-10-06T18:52:27.982Z,15.78
2022-10-06T18:54:54.386Z,15.77
2022-10-06T18:57:26.555Z,15.79
2022-10-06T18:59:55.406Z,15.87
2022-10-06T19:02:22.262Z,15.86
2022-10-06T19:04:48.725Z,15.76
2022-10-06T19:07:15.163Z,15.66
2022-10-06T19:09:46.194Z,15.67
2022-10-06T19:12:13.901Z,15.68
2022-10-06T19:14:46.993Z,15.66
2022-10-06T19:17:15.026Z,15.63
2022-10-06T19:19:51.265Z,15.58
2022-10-06T19:22:19.961Z,15.56
2022-10-06T19:24:48.594Z,15.62
2022-10-06T19:27:20.487Z,15.53
2022-10-06T19:29:53.062Z,15.42
2022-10-06T19:32:22.621Z,15.45
2022-10-06T19:34:49.479Z,15.47
2022-10-06T19:37:16.763Z,15.47
2022-10-06T19:39:46.716Z,15.42
2022-10-06T19:42:33.442Z,15.38
2022-10-06T19:44:59.974Z,15.38
2022-10-06T19:47:27.319Z,15.32
2022-10-06T19:49:58.880Z,15.29
2022-10-06T19:52:27.418Z,15.35
2022-10-06T19:54:53.890Z,15.38
2022-10-06T19:57:20.348Z,15.34
2022-10-06T19:59:46.761Z,15.38
2022-10-06T20:02:13.265Z,15.19
2022-10-06T20:04:39.990Z,15.08
2022-10-06T20:07:08.692Z,15.10
2022-10-06T20:09:35.717Z,15.07
2022-10-06T20:12:02.843Z,15.12
2022-10-06T20:14:29.339Z,15.03
2022-10-06T20:16:57.602Z,14.95
2022-10-06T20:19:25.448Z,14.90
2022-10-06T20:21:52.528Z,14.91
2022-10-06T20:24:22.858Z,14.93
2022-10-06T20:26:50.794Z,14.90
2022-10-06T20:29:20.918Z,14.94
2022-10-06T20:31:50.088Z,14.90
2022-10-06T20:34:22.062Z,14.89
2022-10-06T20:36:51.896Z,14.92
2022-10-06T20:39:41.165Z,14.86
2022-10-06T20:42:13.895Z,14.84
2022-10-06T20:44:42.286Z,14.77
2022-10-06T20:47:10.541Z,14.83
2022-10-06T20:49:37.675Z,14.94
2022-10-06T20:52:05.246Z,14.85
2022-10-06T20:54:34.774Z,14.86
2022-10-06T20:57:04.077Z,14.93
2022-10-06T20:59:32.013Z,14.94
2022-10-06T21:02:01.685Z,14.97
2022-10-06T21:04:28.279Z,14.90
2022-10-06T21:06:54.820Z,14.91
2022-10-06T21:09:21.617Z,14.93
2022-10-06T21:11:48.684Z,14.95
2022-10-06T21:14:15.482Z,15.01
2022-10-06T21:16:44.040Z,14.98
2022-10-06T21:19:14.201Z,15.00
2022-10-06T21:21:42.041Z,14.94
2022-10-06T21:24:09.135Z,14.87
2022-10-06T21:26:36.611Z,14.97
2022-10-06T21:29:03.539Z,14.99
2022-10-06T21:31:30.119Z,15.02
2022-10-06T21:33:56.851Z,14.97
2022-10-06T21:36:26.101Z,15.02
2022-10-06T21:38:55.483Z,15.07
2022-10-06T21:41:29.406Z,15.09
2022-10-06T21:44:05.208Z,15.07
2022-10-06T21:46:34.648Z,15.10
2022-10-06T21:49:02.747Z,15.02
2022-10-06T21:51:30.923Z,14.92
2022-10-06T21:53:59.842Z,14.99
2022-10-06T21:56:28.086Z,14.98
2022-10-06T21:58:55.896Z,14.97
2022-10-06T22:01:27.582Z,14.93
2022-10-06T22:03:54.539Z,15.02
2022-10-06T22:06:22.081Z,15.10
2022-10-06T22:08:49.544Z,15.13
2022-10-06T22:11:19.370Z,15.05
2022-10-06T22:13:53.026Z,14.96
2022-10-06T22:16:21.725Z,15.05
2022-10-06T22:18:49.301Z,15.00
2022-10-06T22:21:18.629Z,14.96
2022-10-06T22:23:47.092Z,14.91
2022-10-06T22:26:15.699Z,14.90
2022-10-06T22:28:47.512Z,14.89
2022-10-06T22:31:15.439Z,14.89
2022-10-06T22:33:43.468Z,14.89
2022-10-06T22:36:12.661Z,14.88
2022-10-06T22:38:39.416Z,14.96
2022-10-06T22:41:08.994Z,14.95
2022-10-06T22:43:35.922Z,14.92
2022-10-06T22:46:02.918Z,15.02
2022-10-06T22:48:29.541Z,15.16
2022-10-06T22:50:56.034Z,15.19
2022-10-06T22:53:24.753Z,15.20
2022-10-06T22:55:52.160Z,15.18
2022-10-06T22:58:19.158Z,15.15
2022-10-06T23:00:45.922Z,15.02
2022-10-06T23:03:12.811Z,14.98
2022-10-06T23:05:40.103Z,15.03
2022-10-06T23:08:08.012Z,14.98
2022-10-06T23:10:35.636Z,14.95
2022-10-06T23:13:02.989Z,14.97
2022-10-06T23:15:29.941Z,14.98
2022-10-06T23:17:56.495Z,14.98
2022-10-06T23:20:22.990Z,15.04
2022-10-06T23:22:49.458Z,14.93
2022-10-06T23:25:16.002Z,15.02
2022-10-06T23:27:42.850Z,15.00
2022-10-06T23:30:10.110Z,15.00
2022-10-06T23:32:37.535Z,14.94
2022-10-06T23:35:04.561Z,14.97
2022-10-06T23:37:31.188Z,14.95
2022-10-06T23:39:57.680Z,14.93
2022-10-06T23:42:24.178Z,14.91
2022-10-06T23:44:50.639Z,14.96
2022-10-06T23:47:17.136Z,14.91
2022-10-06T23:49:43.695Z,14.83
2022-10-06T23:52:10.659Z,14.89
2022-10-06T23:54:37.299Z,14.86
2022-10-06T23:57:04.093Z,14.92
2022-10-06T23:59:31.555Z,14.92
